This demonstration page uses our WeatherBlox Daily Observations layout. Learn more.

36.17497, -115.13722

Hourly Observations for June 23, 2020

Temp ( °F °C ) Dew Point ( °F °C ) Humidity (%) Winds ( mph kmh ) Pressure ( in mb ) Visibility ( mi km ) Precip ( " mm )
12:53 am 00:53 Clear 91 32.8 35 1.7 14 14 SW 3 6 29.77 1008 10 16.0934 0 0
1:53 am 01:53 Clear 89 31.7 35 1.7 15 15 W 7 11 29.78 1009 10 16.0934 0 0
2:53 am 02:53 Clear 85 29.4 34 1.1 16 16 NNW 3 6 29.78 1009 10 16.0934 0 0
3:53 am 03:53 Clear 83 28.3 34 1.1 17 17 WNW 5 7 29.79 1009 10 16.0934 0 0
4:53 am 04:53 Clear 83 28.3 33 0.6 17 17 NNW 7 11 29.79 1009 10 16.0934 0 0
5:53 am 05:53 Sunny 83 28.3 34 1.1 17 17 N 8 13 29.79 1009 10 16.0934 0 0
6:53 am 06:53 Sunny 85 29.4 37 2.8 18 18 NNW 7 11 29.8 1009 10 16.0934 0 0
7:53 am 07:53 Sunny 91 32.8 35 1.7 14 14 NNE 5 7 29.8 1009 10 16.0934 0 0
8:53 am 08:53 Sunny 93 33.9 33 0.6 12 12 E 6 9 29.8 1009 10 16.0934 0 0
9:53 am 09:53 Sunny 95 35 34 1.1 12 12 ESE 7 11 29.79 1009 10 16.0934 0 0
10:53 am 10:53 Sunny 99 37.2 32 0 9 9 SE 8 13 29.79 1009 10 16.0934 0 0
11:53 am 11:53 Sunny 101 38.3 32 0 9 9 E 5 7 29.79 1009 10 16.0934 0 0
12:53 pm 12:53 Sunny 103 39.4 31 -0.6 8 8 VRB 6 9 29.79 1009 10 16.0934 0 0
1:53 pm 13:53 Sunny 105 40.6 29 -1.7 7 7 SE 6 9 29.79 1009 10 16.0934 0 0
2:53 pm 14:53 Sunny 108 42.2 28 -2.2 6 6 SE 10 17 29.8 1009 10 16.0934 0 0
3:53 pm 15:53 Sunny 108 42.2 27 -2.8 6 6 SSE 9 15 29.79 1009 10 16.0934 0 0
4:53 pm 16:53 Sunny 108 42.2 26 -3.3 6 6 VRB 3 6 29.8 1009 10 16.0934 0 0
5:53 pm 17:53 Sunny 108 42.2 26 -3.3 6 6 SSE 12 19 29.79 1009 10 16.0934 0 0
6:53 pm 18:53 Sunny 107 41.7 27 -2.8 6 6 S 13 20 29.8 1009 10 16.0934 0 0
7:53 pm 19:53 Sunny 104 40 26 -3.3 6 6 S 14 22 29.78 1009 10 16.0934 0 0
8:53 pm 20:53 Clear 101 38.3 22 -5.6 6 6 SSE 12 19 29.8 1009 10 16.0934 0 0
9:53 pm 21:53 Clear 98 36.7 25 -3.9 7 7 S 9 15 29.78 1009 10 16.0934 0 0
10:53 pm 22:53 Clear 96 35.6 25 -3.9 8 8 S 10 17 29.79 1009 10 16.0934 0 0
11:53 pm 23:53 Clear 94 34.4 24 -4.4 8 8 SSW 8 13 29.78 1008 10 16.0934 0 0

Powered by AerisWeather